• Join FlightAware (Why Join?)
  • Login
  • US Flag 
06:43AM EST


 

Airport Tracker/Info


-or-


 

Live Flight TrackerFlight Track Log ✈ CNS128 ✈ 26-Feb-2014 ✈ KTEB - KLGA

Flight Track Log - Related Links

Times and Time Zones

All times are in EST time to prevent confusion due to time zone crossing. See the CNS128 flight status page for this flight to view local times or setup timezone preferences in your user account.

Time Position Orientation Groundspeed Altitude Reporting Facility
EST Latitude Longitude Course Direction KTS MPH feet Rate Location/Type
08:32PM 40.9000 -74.0500 21° North 146 168 2,400  Level New York TRACON
08:33PM 40.9333 -74.0333 21° North 167 192 3,700 780 Climbing New York TRACON
08:34PM 40.9500 -73.9667 72° East 215 247 4,000 120 Climbing New York TRACON
08:35PM 40.9500 -73.8833 90° East 239 275 4,000  Level New York TRACON
08:36PM 40.9333 -73.8000 105° East 244 281 4,000  Level New York TRACON
08:37PM 40.9167 -73.7000 102° East 246 283 4,000  Level New York TRACON
08:38PM 40.8667 -73.6500 143° Southeast 246 283 4,000  Level New York TRACON
08:39PM 40.8167 -73.7000 217° Southwest 225 259 4,000  Level New York TRACON
08:40PM 40.7833 -73.7500 229° Southwest 213 245 4,000  Level New York TRACON
08:41PM 40.7833 -73.8500 270° West 210 242 4,000  Level New York TRACON
08:42PM 40.7667 -73.9167 252° West 216 249 4,000  Level New York TRACON
08:43PM 40.7500 -73.9833 252° West 226 260 4,000  Level New York TRACON
08:44PM 40.7000 -74.0333 217° Southwest 225 259 4,000 -300 Level New York TRACON
08:45PM 40.6500 -74.0000 153° Southeast 213 245 3,500 -600 Descending New York TRACON
08:46PM 40.6500 -73.9667 90° East 188 216 3,000 -480 Descending New York TRACON
08:47PM 40.7000 -73.9333 27° Northeast 175 201 2,600 -360 Descending New York TRACON
08:48PM 40.7333 -73.8833 49° Northeast 180 207 2,300 -540 Descending New York TRACON
08:49PM 40.7333 -73.8333 90° East 143 165 1,600 -780 Descending New York TRACON
08:50PM 40.7500 -73.8333 360° North 101 116 800 -840 Descending New York TRACON
08:52PM 40.7667 -73.8667 180° South  Level FlightAware Approximate